sensor_id;sensor_type;location;lat;lon;timestamp;P1;durP1;ratioP1;P2;durP2;ratioP2
75730;SDS011;64350;47.450;19.124;2022-12-29T06:02:40;32.85;;;15.30;;
75730;SDS011;64350;47.450;19.124;2022-12-29T06:05:06;28.27;;;14.73;;
75730;SDS011;64350;47.450;19.124;2022-12-29T06:07:32;31.52;;;15.20;;
75730;SDS011;64350;47.450;19.124;2022-12-29T06:09:57;33.33;;;15.37;;
75730;SDS011;64350;47.450;19.124;2022-12-29T06:12:23;33.10;;;15.90;;
75730;SDS011;64350;47.450;19.124;2022-12-29T06:14:48;29.17;;;14.55;;
75730;SDS011;64350;47.450;19.124;2022-12-29T06:17:14;33.23;;;14.77;;
75730;SDS011;64350;47.450;19.124;2022-12-29T06:19:39;37.37;;;16.40;;
75730;SDS011;64350;47.450;19.124;2022-12-29T06:22:05;34.30;;;16.50;;
75730;SDS011;64350;47.450;19.124;2022-12-29T06:24:32;33.10;;;15.90;;
75730;SDS011;64350;47.450;19.124;2022-12-29T06:26:57;32.78;;;16.15;;
75730;SDS011;64350;47.450;19.124;2022-12-29T06:29:23;31.00;;;14.17;;
75730;SDS011;64350;47.450;19.124;2022-12-29T06:31:48;33.67;;;16.27;;
75730;SDS011;64350;47.450;19.124;2022-12-29T06:34:14;31.62;;;16.12;;
75730;SDS011;64350;47.450;19.124;2022-12-29T06:36:40;31.77;;;15.83;;
75730;SDS011;64350;47.450;19.124;2022-12-29T06:39:05;36.13;;;16.73;;
75730;SDS011;64350;47.450;19.124;2022-12-29T06:41:30;33.13;;;15.47;;
75730;SDS011;64350;47.450;19.124;2022-12-29T06:43:56;31.90;;;15.67;;
75730;SDS011;64350;47.450;19.124;2022-12-29T06:46:22;35.20;;;16.83;;
75730;SDS011;64350;47.450;19.124;2022-12-29T06:48:47;34.07;;;15.67;;
75730;SDS011;64350;47.450;19.124;2022-12-29T06:51:12;32.03;;;16.17;;
75730;SDS011;64350;47.450;19.124;2022-12-29T06:53:38;35.40;;;16.83;;
75730;SDS011;64350;47.450;19.124;2022-12-29T06:56:04;31.87;;;15.90;;
75730;SDS011;64350;47.450;19.124;2022-12-29T06:58:30;34.25;;;17.17;;
75730;SDS011;64350;47.450;19.124;2022-12-29T07:00:55;34.23;;;15.93;;
75730;SDS011;64350;47.450;19.124;2022-12-29T07:03:21;33.97;;;16.33;;
75730;SDS011;64350;47.450;19.124;2022-12-29T07:05:46;36.77;;;15.40;;
75730;SDS011;64350;47.450;19.124;2022-12-29T07:08:11;35.13;;;16.83;;
75730;SDS011;64350;47.450;19.124;2022-12-29T07:10:37;36.47;;;17.12;;
75730;SDS011;64350;47.450;19.124;2022-12-29T07:13:02;38.77;;;17.83;;
75730;SDS011;64350;47.450;19.124;2022-12-29T07:15:27;37.53;;;17.93;;
75730;SDS011;64350;47.450;19.124;2022-12-29T07:17:53;33.87;;;17.43;;
75730;SDS011;64350;47.450;19.124;2022-12-29T07:20:18;37.87;;;17.37;;
75730;SDS011;64350;47.450;19.124;2022-12-29T07:22:44;41.17;;;16.70;;
75730;SDS011;64350;47.450;19.124;2022-12-29T07:25:09;34.27;;;17.67;;
75730;SDS011;64350;47.450;19.124;2022-12-29T07:27:35;32.87;;;17.33;;
75730;SDS011;64350;47.450;19.124;2022-12-29T07:30:00;35.47;;;17.50;;
75730;SDS011;64350;47.450;19.124;2022-12-29T07:32:25;31.15;;;16.55;;
75730;SDS011;64350;47.450;19.124;2022-12-29T07:34:51;31.80;;;16.80;;
75730;SDS011;64350;47.450;19.124;2022-12-29T07:37:16;37.60;;;17.70;;
75730;SDS011;64350;47.450;19.124;2022-12-29T07:39:45;37.13;;;17.23;;
75730;SDS011;64350;47.450;19.124;2022-12-29T07:42:10;34.15;;;18.20;;
75730;SDS011;64350;47.450;19.124;2022-12-29T07:44:36;33.33;;;17.80;;
75730;SDS011;64350;47.450;19.124;2022-12-29T07:47:01;34.97;;;18.17;;
75730;SDS011;64350;47.450;19.124;2022-12-29T07:49:27;33.17;;;16.13;;
75730;SDS011;64350;47.450;19.124;2022-12-29T07:51:53;34.90;;;17.52;;
75730;SDS011;64350;47.450;19.124;2022-12-29T07:54:18;32.90;;;16.43;;
75730;SDS011;64350;47.450;19.124;2022-12-29T07:59:43;34.45;;;17.10;;
75730;SDS011;64350;47.450;19.124;2022-12-29T08:02:10;32.17;;;16.55;;
75730;SDS011;64350;47.450;19.124;2022-12-29T08:04:36;32.43;;;17.13;;
75730;SDS011;64350;47.450;19.124;2022-12-29T08:07:02;34.17;;;17.37;;
75730;SDS011;64350;47.450;19.124;2022-12-29T08:09:27;33.50;;;18.57;;
75730;SDS011;64350;47.450;19.124;2022-12-29T08:11:53;30.20;;;17.93;;
75730;SDS011;64350;47.450;19.124;2022-12-29T08:14:19;34.35;;;16.60;;
75730;SDS011;64350;47.450;19.124;2022-12-29T08:16:45;34.30;;;17.05;;
75730;SDS011;64350;47.450;19.124;2022-12-29T08:19:11;32.37;;;17.73;;
75730;SDS011;64350;47.450;19.124;2022-12-29T08:21:37;29.65;;;16.80;;
75730;SDS011;64350;47.450;19.124;2022-12-29T08:24:04;32.50;;;17.27;;
75730;SDS011;64350;47.450;19.124;2022-12-29T08:26:31;34.60;;;18.40;;
75730;SDS011;64350;47.450;19.124;2022-12-29T08:28:56;31.00;;;17.00;;
75730;SDS011;64350;47.450;19.124;2022-12-29T08:31:22;32.57;;;17.37;;
75730;SDS011;64350;47.450;19.124;2022-12-29T08:33:49;33.55;;;17.10;;
75730;SDS011;64350;47.450;19.124;2022-12-29T08:36:14;31.42;;;17.62;;
75730;SDS011;64350;47.450;19.124;2022-12-29T08:38:40;34.37;;;17.97;;
75730;SDS011;64350;47.450;19.124;2022-12-29T08:41:05;36.30;;;18.77;;
75730;SDS011;64350;47.450;19.124;2022-12-29T08:43:31;32.00;;;18.00;;
75730;SDS011;64350;47.450;19.124;2022-12-29T08:45:57;35.70;;;18.57;;
75730;SDS011;64350;47.450;19.124;2022-12-29T08:48:23;37.85;;;19.15;;
75730;SDS011;64350;47.450;19.124;2022-12-29T08:50:49;36.57;;;18.53;;
75730;SDS011;64350;47.450;19.124;2022-12-29T08:53:15;36.47;;;18.70;;
75730;SDS011;64350;47.450;19.124;2022-12-29T08:55:41;38.42;;;19.65;;
75730;SDS011;64350;47.450;19.124;2022-12-29T08:58:07;37.00;;;19.40;;
75730;SDS011;64350;47.450;19.124;2022-12-29T09:00:32;33.37;;;18.37;;
75730;SDS011;64350;47.450;19.124;2022-12-29T09:02:57;38.35;;;18.08;;
75730;SDS011;64350;47.450;19.124;2022-12-29T09:05:23;36.67;;;19.73;;
75730;SDS011;64350;47.450;19.124;2022-12-29T09:07:48;38.20;;;19.27;;
75730;SDS011;64350;47.450;19.124;2022-12-29T09:10:14;39.13;;;19.90;;
75730;SDS011;64350;47.450;19.124;2022-12-29T09:12:39;34.25;;;18.60;;
75730;SDS011;64350;47.450;19.124;2022-12-29T09:15:05;36.07;;;17.50;;
75730;SDS011;64350;47.450;19.124;2022-12-29T09:17:30;37.90;;;18.08;;
75730;SDS011;64350;47.450;19.124;2022-12-29T09:20:12;35.30;;;18.57;;
75730;SDS011;64350;47.450;19.124;2022-12-29T09:22:39;30.48;;;17.52;;
75730;SDS011;64350;47.450;19.124;2022-12-29T09:25:05;34.20;;;18.52;;
75730;SDS011;64350;47.450;19.124;2022-12-29T09:27:31;34.25;;;17.87;;
75730;SDS011;64350;47.450;19.124;2022-12-29T09:29:56;35.97;;;19.80;;
75730;SDS011;64350;47.450;19.124;2022-12-29T09:32:22;36.37;;;17.97;;
75730;SDS011;64350;47.450;19.124;2022-12-29T09:34:47;34.20;;;17.67;;
75730;SDS011;64350;47.450;19.124;2022-12-29T09:37:12;35.93;;;18.10;;
75730;SDS011;64350;47.450;19.124;2022-12-29T09:39:40;34.15;;;18.92;;
75730;SDS011;64350;47.450;19.124;2022-12-29T09:47:41;41.35;;;19.87;;
75730;SDS011;64350;47.450;19.124;2022-12-29T09:50:19;36.95;;;19.58;;
75730;SDS011;64350;47.450;19.124;2022-12-29T09:55:41;37.93;;;18.60;;
75730;SDS011;64350;47.450;19.124;2022-12-29T09:58:14;36.67;;;19.40;;
75730;SDS011;64350;47.450;19.124;2022-12-29T10:03:45;35.80;;;19.27;;
75730;SDS011;64350;47.450;19.124;2022-12-29T10:08:51;31.10;;;17.27;;
75730;SDS011;64350;47.450;19.124;2022-12-29T10:17:01;33.30;;;17.17;;
75730;SDS011;64350;47.450;19.124;2022-12-29T10:25:19;29.33;;;16.52;;
75730;SDS011;64350;47.450;19.124;2022-12-29T10:27:51;32.72;;;17.60;;
75730;SDS011;64350;47.450;19.124;2022-12-29T10:30:18;29.87;;;17.65;;
75730;SDS011;64350;47.450;19.124;2022-12-29T10:32:52;34.63;;;17.97;;
75730;SDS011;64350;47.450;19.124;2022-12-29T10:35:24;34.13;;;18.17;;
75730;SDS011;64350;47.450;19.124;2022-12-29T10:40:38;33.33;;;18.00;;
75730;SDS011;64350;47.450;19.124;2022-12-29T10:43:29;35.72;;;18.02;;
75730;SDS011;64350;47.450;19.124;2022-12-29T10:45:55;33.25;;;18.62;;
75730;SDS011;64350;47.450;19.124;2022-12-29T10:48:33;38.15;;;19.60;;
75730;SDS011;64350;47.450;19.124;2022-12-29T10:51:00;38.75;;;20.40;;
75730;SDS011;64350;47.450;19.124;2022-12-29T10:53:27;38.00;;;19.23;;
75730;SDS011;64350;47.450;19.124;2022-12-29T10:56:11;35.75;;;18.08;;
75730;SDS011;64350;47.450;19.124;2022-12-29T10:58:41;36.20;;;18.70;;
75730;SDS011;64350;47.450;19.124;2022-12-29T11:01:08;30.33;;;17.62;;
75730;SDS011;64350;47.450;19.124;2022-12-29T11:03:58;33.95;;;19.10;;
75730;SDS011;64350;47.450;19.124;2022-12-29T11:06:28;32.23;;;17.43;;
75730;SDS011;64350;47.450;19.124;2022-12-29T11:09:12;31.10;;;16.95;;
75730;SDS011;64350;47.450;19.124;2022-12-29T11:11:40;31.00;;;18.08;;
75730;SDS011;64350;47.450;19.124;2022-12-29T11:14:14;31.73;;;16.37;;
75730;SDS011;64350;47.450;19.124;2022-12-29T11:16:46;30.00;;;16.67;;
75730;SDS011;64350;47.450;19.124;2022-12-29T11:19:26;28.80;;;17.15;;
75730;SDS011;64350;47.450;19.124;2022-12-29T11:21:53;28.85;;;17.62;;
75730;SDS011;64350;47.450;19.124;2022-12-29T11:24:29;31.70;;;17.67;;
75730;SDS011;64350;47.450;19.124;2022-12-29T11:27:16;32.55;;;17.90;;
75730;SDS011;64350;47.450;19.124;2022-12-29T11:29:48;28.17;;;16.40;;
75730;SDS011;64350;47.450;19.124;2022-12-29T11:32:18;30.65;;;17.52;;
75730;SDS011;64350;47.450;19.124;2022-12-29T11:34:47;33.60;;;20.80;;
75730;SDS011;64350;47.450;19.124;2022-12-29T11:37:13;35.08;;;20.67;;
75730;SDS011;64350;47.450;19.124;2022-12-29T11:42:18;27.83;;;17.95;;
75730;SDS011;64350;47.450;19.124;2022-12-29T11:44:47;29.20;;;18.55;;
75730;SDS011;64350;47.450;19.124;2022-12-29T11:47:19;30.30;;;17.95;;
75730;SDS011;64350;47.450;19.124;2022-12-29T11:49:49;29.95;;;17.87;;
75730;SDS011;64350;47.450;19.124;2022-12-29T11:52:16;28.77;;;17.63;;
75730;SDS011;64350;47.450;19.124;2022-12-29T11:54:41;27.42;;;17.87;;
75730;SDS011;64350;47.450;19.124;2022-12-29T11:57:16;31.00;;;18.60;;
75730;SDS011;64350;47.450;19.124;2022-12-29T11:59:44;30.23;;;18.12;;
75730;SDS011;64350;47.450;19.124;2022-12-29T12:02:22;32.25;;;19.87;;
75730;SDS011;64350;47.450;19.124;2022-12-29T12:04:54;31.30;;;19.27;;
75730;SDS011;64350;47.450;19.124;2022-12-29T12:08:09;30.17;;;18.48;;
75730;SDS011;64350;47.450;19.124;2022-12-29T12:10:27;30.47;;;18.73;;
75730;SDS011;64350;47.450;19.124;2022-12-29T12:15:51;33.58;;;19.87;;
75730;SDS011;64350;47.450;19.124;2022-12-29T12:29:43;33.30;;;19.87;;
75730;SDS011;64350;47.450;19.124;2022-12-29T12:35:25;33.85;;;20.42;;
75730;SDS011;64350;47.450;19.124;2022-12-29T12:41:08;35.50;;;19.17;;
75730;SDS011;64350;47.450;19.124;2022-12-29T12:46:24;30.48;;;18.00;;
75730;SDS011;64350;47.450;19.124;2022-12-29T13:07:47;35.45;;;20.48;;
75730;SDS011;64350;47.450;19.124;2022-12-29T13:10:24;37.40;;;21.35;;
75730;SDS011;64350;47.450;19.124;2022-12-29T13:13:00;37.20;;;19.73;;
75730;SDS011;64350;47.450;19.124;2022-12-29T13:18:27;36.17;;;20.00;;
75730;SDS011;64350;47.450;19.124;2022-12-29T13:21:06;36.80;;;19.92;;
75730;SDS011;64350;47.450;19.124;2022-12-29T13:23:40;35.30;;;19.17;;
75730;SDS011;64350;47.450;19.124;2022-12-29T13:26:31;30.98;;;18.80;;
75730;SDS011;64350;47.450;19.124;2022-12-29T13:34:35;35.17;;;18.67;;
75730;SDS011;64350;47.450;19.124;2022-12-29T13:37:11;34.85;;;19.62;;
75730;SDS011;64350;47.450;19.124;2022-12-29T13:39:43;36.25;;;19.52;;
75730;SDS011;64350;47.450;19.124;2022-12-29T13:42:25;37.30;;;19.15;;
75730;SDS011;64350;47.450;19.124;2022-12-29T13:44:56;32.60;;;17.77;;
75730;SDS011;64350;47.450;19.124;2022-12-29T13:49:53;37.63;;;20.23;;
75730;SDS011;64350;47.450;19.124;2022-12-29T14:01:55;35.38;;;18.87;;
75730;SDS011;64350;47.450;19.124;2022-12-29T14:03:55;31.87;;;16.80;;
75730;SDS011;64350;47.450;19.124;2022-12-29T14:06:31;38.15;;;20.00;;
75730;SDS011;64350;47.450;19.124;2022-12-29T14:08:59;40.03;;;19.85;;
75730;SDS011;64350;47.450;19.124;2022-12-29T14:11:32;39.80;;;21.17;;
75730;SDS011;64350;47.450;19.124;2022-12-29T14:13:59;36.88;;;19.83;;
75730;SDS011;64350;47.450;19.124;2022-12-29T14:16:36;38.28;;;22.30;;
75730;SDS011;64350;47.450;19.124;2022-12-29T14:19:09;41.10;;;20.23;;
75730;SDS011;64350;47.450;19.124;2022-12-29T14:21:38;38.75;;;20.83;;
75730;SDS011;64350;47.450;19.124;2022-12-29T14:34:54;40.30;;;20.25;;
75730;SDS011;64350;47.450;19.124;2022-12-29T14:37:45;41.30;;;22.15;;
75730;SDS011;64350;47.450;19.124;2022-12-29T14:40:16;39.87;;;20.90;;
75730;SDS011;64350;47.450;19.124;2022-12-29T14:42:43;41.20;;;22.02;;
75730;SDS011;64350;47.450;19.124;2022-12-29T14:47:40;47.28;;;23.25;;
75730;SDS011;64350;47.450;19.124;2022-12-29T14:53:10;38.17;;;22.60;;
75730;SDS011;64350;47.450;19.124;2022-12-29T14:58:03;46.33;;;23.30;;
75730;SDS011;64350;47.450;19.124;2022-12-29T15:00:31;41.70;;;22.73;;
75730;SDS011;64350;47.450;19.124;2022-12-29T15:07:59;38.75;;;21.30;;
75730;SDS011;64350;47.450;19.124;2022-12-29T15:10:25;36.58;;;19.52;;
75730;SDS011;64350;47.450;19.124;2022-12-29T15:12:53;44.63;;;21.25;;
75730;SDS011;64350;47.450;19.124;2022-12-29T15:17:46;41.87;;;20.40;;
75730;SDS011;64350;47.450;19.124;2022-12-29T15:20:25;40.47;;;21.55;;
75730;SDS011;64350;47.450;19.124;2022-12-29T15:22:57;37.23;;;19.90;;
75730;SDS011;64350;47.450;19.124;2022-12-29T15:25:26;36.78;;;20.80;;
75730;SDS011;64350;47.450;19.124;2022-12-29T15:27:52;40.15;;;18.77;;
75730;SDS011;64350;47.450;19.124;2022-12-29T15:30:19;37.63;;;20.00;;
75730;SDS011;64350;47.450;19.124;2022-12-29T15:32:46;37.13;;;19.20;;
75730;SDS011;64350;47.450;19.124;2022-12-29T15:35:25;40.88;;;19.75;;
75730;SDS011;64350;47.450;19.124;2022-12-29T15:37:52;38.92;;;20.35;;
75730;SDS011;64350;47.450;19.124;2022-12-29T15:40:30;41.23;;;21.20;;
75730;SDS011;64350;47.450;19.124;2022-12-29T15:43:04;42.78;;;20.42;;
75730;SDS011;64350;47.450;19.124;2022-12-29T15:45:33;41.95;;;19.65;;
75730;SDS011;64350;47.450;19.124;2022-12-29T15:47:59;43.38;;;21.45;;
75730;SDS011;64350;47.450;19.124;2022-12-29T15:50:26;39.97;;;21.60;;
75730;SDS011;64350;47.450;19.124;2022-12-29T15:52:53;38.25;;;19.92;;
75730;SDS011;64350;47.450;19.124;2022-12-29T15:55:20;43.80;;;21.77;;
75730;SDS011;64350;47.450;19.124;2022-12-29T15:57:56;39.67;;;19.80;;
75730;SDS011;64350;47.450;19.124;2022-12-29T16:00:27;45.35;;;22.37;;
75730;SDS011;64350;47.450;19.124;2022-12-29T16:03:02;45.10;;;22.13;;
75730;SDS011;64350;47.450;19.124;2022-12-29T16:05:36;40.47;;;21.90;;
75730;SDS011;64350;47.450;19.124;2022-12-29T16:08:03;41.57;;;21.03;;
75730;SDS011;64350;47.450;19.124;2022-12-29T16:10:41;46.78;;;22.08;;
75730;SDS011;64350;47.450;19.124;2022-12-29T16:13:15;44.92;;;23.23;;
75730;SDS011;64350;47.450;19.124;2022-12-29T16:15:46;44.92;;;22.17;;
75730;SDS011;64350;47.450;19.124;2022-12-29T16:18:25;53.35;;;25.20;;
75730;SDS011;64350;47.450;19.124;2022-12-29T16:20:52;47.37;;;21.77;;
75730;SDS011;64350;47.450;19.124;2022-12-29T16:23:20;52.67;;;23.98;;
75730;SDS011;64350;47.450;19.124;2022-12-29T16:25:47;51.45;;;24.67;;
75730;SDS011;64350;47.450;19.124;2022-12-29T16:28:15;52.80;;;24.43;;
75730;SDS011;64350;47.450;19.124;2022-12-29T16:30:45;46.70;;;24.48;;
75730;SDS011;64350;47.450;19.124;2022-12-29T16:33:35;53.30;;;24.60;;
75730;SDS011;64350;47.450;19.124;2022-12-29T16:36:27;51.37;;;24.58;;
75730;SDS011;64350;47.450;19.124;2022-12-29T16:39:08;53.92;;;25.67;;
75730;SDS011;64350;47.450;19.124;2022-12-29T16:41:47;48.22;;;22.98;;
75730;SDS011;64350;47.450;19.124;2022-12-29T16:44:20;51.28;;;23.00;;
75730;SDS011;64350;47.450;19.124;2022-12-29T16:49:34;49.63;;;22.97;;
75730;SDS011;64350;47.450;19.124;2022-12-29T16:52:01;53.22;;;23.73;;
75730;SDS011;64350;47.450;19.124;2022-12-29T16:54:36;48.70;;;23.43;;
75730;SDS011;64350;47.450;19.124;2022-12-29T16:57:02;50.25;;;23.08;;
75730;SDS011;64350;47.450;19.124;2022-12-29T16:59:30;48.80;;;23.95;;
75730;SDS011;64350;47.450;19.124;2022-12-29T17:01:58;47.83;;;23.62;;
75730;SDS011;64350;47.450;19.124;2022-12-29T17:04:24;50.72;;;23.90;;
75730;SDS011;64350;47.450;19.124;2022-12-29T17:06:50;46.33;;;23.15;;
75730;SDS011;64350;47.450;19.124;2022-12-29T17:09:16;48.17;;;23.50;;
75730;SDS011;64350;47.450;19.124;2022-12-29T17:11:41;55.22;;;24.80;;
75730;SDS011;64350;47.450;19.124;2022-12-29T17:14:20;48.30;;;23.52;;
75730;SDS011;64350;47.450;19.124;2022-12-29T17:16:57;50.70;;;23.63;;
75730;SDS011;64350;47.450;19.124;2022-12-29T17:19:32;53.78;;;25.08;;
75730;SDS011;64350;47.450;19.124;2022-12-29T17:21:59;53.17;;;24.42;;
75730;SDS011;64350;47.450;19.124;2022-12-29T17:24:28;50.17;;;24.67;;
75730;SDS011;64350;47.450;19.124;2022-12-29T17:26:55;51.95;;;25.55;;
75730;SDS011;64350;47.450;19.124;2022-12-29T17:29:26;52.67;;;25.65;;
75730;SDS011;64350;47.450;19.124;2022-12-29T17:31:55;53.92;;;25.65;;
75730;SDS011;64350;47.450;19.124;2022-12-29T17:34:23;57.10;;;27.17;;
75730;SDS011;64350;47.450;19.124;2022-12-29T17:36:49;52.65;;;25.67;;
75730;SDS011;64350;47.450;19.124;2022-12-29T17:39:14;52.77;;;26.60;;
75730;SDS011;64350;47.450;19.124;2022-12-29T17:41:39;55.70;;;27.60;;
75730;SDS011;64350;47.450;19.124;2022-12-29T17:44:05;59.97;;;26.20;;
75730;SDS011;64350;47.450;19.124;2022-12-29T17:46:31;58.30;;;27.40;;
75730;SDS011;64350;47.450;19.124;2022-12-29T17:49:09;52.50;;;25.27;;
75730;SDS011;64350;47.450;19.124;2022-12-29T17:51:39;54.05;;;25.62;;
75730;SDS011;64350;47.450;19.124;2022-12-29T17:54:18;62.85;;;28.33;;
75730;SDS011;64350;47.450;19.124;2022-12-29T17:56:45;60.05;;;26.95;;
75730;SDS011;64350;47.450;19.124;2022-12-29T17:59:11;58.30;;;27.87;;
75730;SDS011;64350;47.450;19.124;2022-12-29T18:01:38;60.90;;;26.87;;
75730;SDS011;64350;47.450;19.124;2022-12-29T18:04:03;56.13;;;27.47;;
75730;SDS011;64350;47.450;19.124;2022-12-29T18:06:29;58.70;;;26.95;;
75730;SDS011;64350;47.450;19.124;2022-12-29T18:09:00;60.20;;;28.10;;
75730;SDS011;64350;47.450;19.124;2022-12-29T18:11:25;59.25;;;27.87;;
75730;SDS011;64350;47.450;19.124;2022-12-29T18:13:51;58.20;;;27.08;;
75730;SDS011;64350;47.450;19.124;2022-12-29T18:16:17;63.58;;;28.55;;
75730;SDS011;64350;47.450;19.124;2022-12-29T18:18:42;62.53;;;28.92;;
75730;SDS011;64350;47.450;19.124;2022-12-29T18:21:27;57.50;;;28.97;;
75730;SDS011;64350;47.450;19.124;2022-12-29T18:23:55;58.50;;;26.95;;
75730;SDS011;64350;47.450;19.124;2022-12-29T18:26:22;58.03;;;27.43;;
75730;SDS011;64350;47.450;19.124;2022-12-29T18:28:49;57.87;;;25.90;;
75730;SDS011;64350;47.450;19.124;2022-12-29T18:33:53;61.72;;;26.60;;
75730;SDS011;64350;47.450;19.124;2022-12-29T18:36:20;59.80;;;27.33;;
75730;SDS011;64350;47.450;19.124;2022-12-29T18:38:45;57.67;;;25.77;;
75730;SDS011;64350;47.450;19.124;2022-12-29T18:41:16;52.47;;;26.15;;
75730;SDS011;64350;47.450;19.124;2022-12-29T18:43:43;55.47;;;26.55;;
75730;SDS011;64350;47.450;19.124;2022-12-29T18:46:09;54.53;;;27.00;;
75730;SDS011;64350;47.450;19.124;2022-12-29T18:48:35;56.88;;;25.90;;
75730;SDS011;64350;47.450;19.124;2022-12-29T18:51:00;54.90;;;26.60;;
75730;SDS011;64350;47.450;19.124;2022-12-29T18:53:26;58.23;;;26.40;;
75730;SDS011;64350;47.450;19.124;2022-12-29T18:55:52;49.25;;;26.08;;
75730;SDS011;64350;47.450;19.124;2022-12-29T18:58:18;55.60;;;26.00;;
75730;SDS011;64350;47.450;19.124;2022-12-29T19:00:44;55.38;;;25.73;;
75730;SDS011;64350;47.450;19.124;2022-12-29T19:03:11;61.90;;;27.40;;
75730;SDS011;64350;47.450;19.124;2022-12-29T19:05:37;58.13;;;27.23;;
75730;SDS011;64350;47.450;19.124;2022-12-29T19:08:04;56.70;;;27.47;;
75730;SDS011;64350;47.450;19.124;2022-12-29T19:10:31;56.50;;;28.50;;
75730;SDS011;64350;47.450;19.124;2022-12-29T19:12:56;59.38;;;27.58;;
75730;SDS011;64350;47.450;19.124;2022-12-29T19:15:26;56.43;;;26.57;;
75730;SDS011;64350;47.450;19.124;2022-12-29T19:17:57;55.47;;;25.52;;
75730;SDS011;64350;47.450;19.124;2022-12-29T19:22:57;58.83;;;26.93;;
75730;SDS011;64350;47.450;19.124;2022-12-29T19:25:23;53.95;;;26.08;;
75730;SDS011;64350;47.450;19.124;2022-12-29T19:27:50;57.28;;;26.98;;
75730;SDS011;64350;47.450;19.124;2022-12-29T19:30:15;54.33;;;25.02;;
75730;SDS011;64350;47.450;19.124;2022-12-29T19:32:41;55.13;;;27.40;;
75730;SDS011;64350;47.450;19.124;2022-12-29T19:35:07;56.08;;;27.45;;
75730;SDS011;64350;47.450;19.124;2022-12-29T19:37:34;55.40;;;27.50;;
75730;SDS011;64350;47.450;19.124;2022-12-29T19:40:02;53.97;;;26.67;;
75730;SDS011;64350;47.450;19.124;2022-12-29T19:42:28;55.38;;;25.67;;
75730;SDS011;64350;47.450;19.124;2022-12-29T19:44:53;58.17;;;26.67;;
75730;SDS011;64350;47.450;19.124;2022-12-29T19:47:19;53.75;;;25.52;;
75730;SDS011;64350;47.450;19.124;2022-12-29T19:49:45;56.43;;;25.40;;
75730;SDS011;64350;47.450;19.124;2022-12-29T19:52:10;51.22;;;25.85;;
75730;SDS011;64350;47.450;19.124;2022-12-29T19:54:39;51.37;;;26.67;;
75730;SDS011;64350;47.450;19.124;2022-12-29T19:57:04;56.22;;;27.30;;
75730;SDS011;64350;47.450;19.124;2022-12-29T19:59:30;52.90;;;25.90;;
75730;SDS011;64350;47.450;19.124;2022-12-29T20:01:58;53.95;;;26.08;;
75730;SDS011;64350;47.450;19.124;2022-12-29T20:04:24;53.87;;;26.03;;
75730;SDS011;64350;47.450;19.124;2022-12-29T20:06:49;56.75;;;26.12;;
75730;SDS011;64350;47.450;19.124;2022-12-29T20:09:15;55.10;;;27.37;;
75730;SDS011;64350;47.450;19.124;2022-12-29T20:11:40;52.77;;;27.50;;
75730;SDS011;64350;47.450;19.124;2022-12-29T20:14:12;54.63;;;28.60;;
75730;SDS011;64350;47.450;19.124;2022-12-29T20:16:37;52.40;;;25.98;;
75730;SDS011;64350;47.450;19.124;2022-12-29T20:19:03;56.57;;;26.87;;
75730;SDS011;64350;47.450;19.124;2022-12-29T20:21:28;58.40;;;27.10;;
75730;SDS011;64350;47.450;19.124;2022-12-29T20:23:54;56.03;;;28.07;;
75730;SDS011;64350;47.450;19.124;2022-12-29T20:26:24;51.15;;;26.65;;
75730;SDS011;64350;47.450;19.124;2022-12-29T20:28:51;56.83;;;27.87;;
75730;SDS011;64350;47.450;19.124;2022-12-29T20:31:22;55.70;;;26.50;;
75730;SDS011;64350;47.450;19.124;2022-12-29T20:33:53;53.42;;;26.40;;
75730;SDS011;64350;47.450;19.124;2022-12-29T20:36:29;53.58;;;27.87;;
75730;SDS011;64350;47.450;19.124;2022-12-29T20:38:57;59.00;;;28.33;;
75730;SDS011;64350;47.450;19.124;2022-12-29T20:41:27;53.22;;;27.15;;
75730;SDS011;64350;47.450;19.124;2022-12-29T20:43:55;51.88;;;27.08;;
75730;SDS011;64350;47.450;19.124;2022-12-29T20:46:20;54.22;;;26.67;;
75730;SDS011;64350;47.450;19.124;2022-12-29T20:48:47;58.95;;;28.02;;
75730;SDS011;64350;47.450;19.124;2022-12-29T20:51:13;56.00;;;27.03;;
75730;SDS011;64350;47.450;19.124;2022-12-29T20:53:38;50.50;;;26.23;;
75730;SDS011;64350;47.450;19.124;2022-12-29T20:56:05;56.97;;;26.30;;
75730;SDS011;64350;47.450;19.124;2022-12-29T20:58:32;55.63;;;28.15;;
75730;SDS011;64350;47.450;19.124;2022-12-29T21:01:02;55.97;;;28.20;;
75730;SDS011;64350;47.450;19.124;2022-12-29T21:03:30;53.13;;;28.10;;
75730;SDS011;64350;47.450;19.124;2022-12-29T21:05:55;56.53;;;26.98;;
75730;SDS011;64350;47.450;19.124;2022-12-29T21:08:22;57.87;;;27.23;;
75730;SDS011;64350;47.450;19.124;2022-12-29T21:10:48;56.70;;;27.85;;
75730;SDS011;64350;47.450;19.124;2022-12-29T21:13:14;50.42;;;26.58;;
75730;SDS011;64350;47.450;19.124;2022-12-29T21:15:43;52.28;;;27.52;;
75730;SDS011;64350;47.450;19.124;2022-12-29T21:18:09;55.07;;;26.87;;
75730;SDS011;64350;47.450;19.124;2022-12-29T21:20:35;55.88;;;28.17;;
75730;SDS011;64350;47.450;19.124;2022-12-29T21:23:00;51.43;;;27.97;;
75730;SDS011;64350;47.450;19.124;2022-12-29T21:25:27;56.33;;;28.15;;
75730;SDS011;64350;47.450;19.124;2022-12-29T21:28:01;52.25;;;28.20;;
75730;SDS011;64350;47.450;19.124;2022-12-29T21:30:28;58.75;;;29.42;;
75730;SDS011;64350;47.450;19.124;2022-12-29T21:32:53;53.08;;;26.77;;
75730;SDS011;64350;47.450;19.124;2022-12-29T21:35:19;53.93;;;28.10;;
75730;SDS011;64350;47.450;19.124;2022-12-29T21:37:44;56.88;;;29.02;;
75730;SDS011;64350;47.450;19.124;2022-12-29T21:40:10;53.85;;;27.70;;
75730;SDS011;64350;47.450;19.124;2022-12-29T21:42:36;55.70;;;28.33;;
75730;SDS011;64350;47.450;19.124;2022-12-29T21:45:01;55.97;;;27.77;;
75730;SDS011;64350;47.450;19.124;2022-12-29T21:47:45;52.27;;;27.80;;
